Time;durP1;ratioP1;P1;durP2;ratioP2;P2;SDS_P1;SDS_P2;PMS_P1;PMS_P2;Temp;Humidity;BMP_temperature;BMP_pressure;BME280_temperature;BME280_humidity;BME280_pressure;Samples;Min_cycle;Max_cycle;Signal;HPM_P1;HPM_P2
2023/01/21 00:01:53;;;;;;;22.40;9.75;;;-0.40;99.90;;;;;;5080545;28;20075;-57
2023/01/21 00:04:18;;;;;;;20.42;10.18;;;-0.30;99.90;;;;;;5065371;28;20110;-58
2023/01/21 00:06:44;;;;;;;24.00;10.15;;;-0.10;99.90;;;;;;5080629;28;20044;-58
2023/01/21 00:09:10;;;;;;;20.27;10.00;;;0.10;99.90;;;;;;5065534;28;20056;-57
2023/01/21 00:11:36;;;;;;;24.67;10.80;;;-0.20;99.90;;;;;;5081903;28;20044;-58
2023/01/21 00:14:01;;;;;;;25.80;11.30;;;-0.10;99.90;;;;;;5082028;28;20045;-58
2023/01/21 00:16:27;;;;;;;20.95;10.32;;;-0.10;99.90;;;;;;5083521;28;20422;-57
2023/01/21 00:18:55;;;;;;;25.17;10.68;;;-0.30;99.90;;;;;;5080551;28;20047;-58
2023/01/21 00:21:20;;;;;;;19.13;10.10;;;-0.30;99.90;;;;;;5083427;28;20037;-58
2023/01/21 00:23:46;;;;;;;23.92;10.77;;;-0.40;99.90;;;;;;5080602;28;20135;-58
2023/01/21 00:26:12;;;;;;;22.27;11.95;;;-0.20;99.90;;;;;;5083277;28;20041;-56
2023/01/21 00:28:40;;;;;;;24.88;11.10;;;-0.20;99.90;;;;;;5081497;28;20644;-57
2023/01/21 00:31:07;;;;;;;23.50;10.38;;;-0.20;99.90;;;;;;5081817;28;20430;-58
2023/01/21 00:33:33;;;;;;;25.23;11.52;;;-0.20;99.90;;;;;;5065168;28;20059;-58
2023/01/21 00:36:05;;;;;;;23.77;11.27;;;-0.30;99.90;;;;;;5080141;28;20094;-57
2023/01/21 00:38:31;;;;;;;21.20;9.68;;;-0.50;99.90;;;;;;5083046;28;20074;-58
2023/01/21 00:41:01;;;;;;;23.38;10.52;;;-0.20;99.90;;;;;;5080343;28;20072;-58
2023/01/21 00:43:27;;;;;;;20.67;10.85;;;-0.50;99.90;;;;;;5082458;28;20089;-57
2023/01/21 00:45:52;;;;;;;21.30;9.93;;;-0.40;99.90;;;;;;5081927;28;20048;-58
2023/01/21 00:48:18;;;;;;;24.95;10.38;;;-0.40;99.90;;;;;;5081541;28;20073;-58
2023/01/21 00:50:44;;;;;;;24.38;10.65;;;-0.50;99.90;;;;;;5082803;28;20102;-58
2023/01/21 00:53:10;;;;;;;21.23;10.40;;;-0.50;99.90;;;;;;5079628;28;20044;-58
2023/01/21 00:55:35;;;;;;;25.40;11.48;;;-0.50;99.90;;;;;;5103037;28;20081;-58
2023/01/21 00:58:01;;;;;;;22.50;10.80;;;-0.60;99.90;;;;;;5100180;28;20132;-58
2023/01/21 01:00:27;;;;;;;23.17;10.20;;;-0.40;99.90;;;;;;5084794;28;20047;-57
2023/01/21 01:02:52;;;;;;;21.23;10.05;;;-0.40;99.90;;;;;;5100885;28;20051;-58
2023/01/21 01:05:20;;;;;;;22.42;9.93;;;-0.80;99.90;;;;;;5101572;28;20036;-58
2023/01/21 01:07:46;;;;;;;20.35;10.13;;;-0.70;99.90;;;;;;5102271;28;20090;-57
2023/01/21 01:10:12;;;;;;;22.90;9.35;;;-0.50;99.90;;;;;;5100130;28;20042;-59
2023/01/21 01:12:37;;;;;;;23.33;10.60;;;-0.50;99.90;;;;;;5102382;28;20477;-58
2023/01/21 01:15:04;;;;;;;21.33;9.45;;;-0.80;99.90;;;;;;5100106;28;20142;-57
2023/01/21 01:17:30;;;;;;;21.75;10.18;;;-0.70;99.90;;;;;;5102715;28;20048;-57
2023/01/21 01:19:57;;;;;;;22.17;10.77;;;-0.70;99.90;;;;;;5100086;28;20028;-58
2023/01/21 01:22:22;;;;;;;22.95;10.35;;;-0.50;99.90;;;;;;5101941;28;20526;-58
2023/01/21 01:24:48;;;;;;;20.42;9.73;;;-0.60;99.90;;;;;;5102197;28;20099;-58
2023/01/21 01:27:14;;;;;;;21.30;9.60;;;-0.70;99.90;;;;;;5099931;28;20035;-57
2023/01/21 01:29:39;;;;;;;21.85;10.32;;;-0.60;99.90;;;;;;5084077;28;20048;-58
2023/01/21 01:32:05;;;;;;;23.40;10.65;;;-0.60;99.90;;;;;;5080868;28;20048;-58
2023/01/21 01:34:31;;;;;;;23.20;10.82;;;-0.60;99.90;;;;;;5083945;28;20074;-57
2023/01/21 01:36:56;;;;;;;23.50;10.75;;;-0.70;99.90;;;;;;5081392;28;20099;-57
2023/01/21 01:39:22;;;;;;;20.20;9.35;;;-0.70;99.90;;;;;;5101768;28;20055;-58
2023/01/21 01:41:48;;;;;;;22.27;10.55;;;-0.80;99.90;;;;;;5101243;28;20044;-57
2023/01/21 01:44:51;;;;;;;25.55;12.95;;;-0.60;99.90;;;;;;5099849;28;20051;-58
2023/01/21 01:47:18;;;;;;;24.70;10.88;;;-0.60;99.90;;;;;;5102042;28;20055;-57
2023/01/21 01:49:43;;;;;;;25.80;10.68;;;-0.70;99.90;;;;;;5099121;28;20047;-57
2023/01/21 01:52:11;;;;;;;23.38;10.23;;;-0.90;99.90;;;;;;5101576;28;20043;-58
2023/01/21 01:54:50;;;;;;;20.23;9.98;;;-0.90;99.90;;;;;;5088836;28;20106;-57
2023/01/21 01:57:20;;;;;;;25.05;10.95;;;-0.60;99.90;;;;;;5078751;28;20040;-57
2023/01/21 01:59:47;;;;;;;26.92;10.77;;;-0.60;99.90;;;;;;5081466;28;20060;-58
2023/01/21 02:02:16;;;;;;;26.58;11.63;;;-0.90;99.90;;;;;;5078780;28;20040;-58
2023/01/21 02:04:48;;;;;;;22.77;10.20;;;-0.70;99.90;;;;;;5081376;28;20434;-58
2023/01/21 02:07:16;;;;;;;26.20;10.20;;;-0.80;99.90;;;;;;5080151;28;20041;-57
2023/01/21 02:09:41;;;;;;;21.73;10.77;;;-0.70;99.90;;;;;;5079743;28;20054;-58
2023/01/21 02:12:07;;;;;;;23.63;11.68;;;-1.00;99.90;;;;;;5081049;28;20100;-58
2023/01/21 02:14:41;;;;;;;24.75;11.00;;;-0.80;99.90;;;;;;5060336;28;20056;-57
2023/01/21 02:17:16;;;;;;;23.20;11.07;;;-0.90;99.90;;;;;;5085721;28;20038;-58
2023/01/21 02:19:55;;;;;;;22.27;10.38;;;-1.00;99.90;;;;;;5098319;28;20040;-58
2023/01/21 02:22:40;;;;;;;23.85;10.52;;;-1.00;99.90;;;;;;5099787;28;20048;-58
2023/01/21 02:25:24;;;;;;;27.33;10.95;;;-1.10;99.90;;;;;;5101319;28;20040;-57
2023/01/21 02:27:59;;;;;;;26.42;10.60;;;-1.10;99.90;;;;;;5098687;28;20051;-58
2023/01/21 02:31:10;;;;;;;22.80;10.15;;;-0.80;99.90;;;;;;5101229;28;20388;-57
2023/01/21 02:34:00;;;;;;;22.25;9.98;;;-1.00;99.90;;;;;;5101211;28;20077;-58
2023/01/21 02:36:53;;;;;;;24.90;10.63;;;-0.70;99.90;;;;;;5098205;28;20120;-58
2023/01/21 02:39:32;;;;;;;23.88;9.45;;;-1.00;99.90;;;;;;5100198;28;20056;-58
2023/01/21 02:42:12;;;;;;;22.00;10.25;;;-1.00;99.90;;;;;;5100675;28;20048;-58
2023/01/21 02:44:41;;;;;;;23.02;10.77;;;-0.80;99.90;;;;;;5097899;28;20048;-58
2023/01/21 02:47:14;;;;;;;25.02;10.52;;;-0.90;99.90;;;;;;5100981;28;20036;-57
2023/01/21 02:49:43;;;;;;;22.10;10.60;;;-0.70;99.90;;;;;;5063506;28;20328;-58
2023/01/21 02:52:20;;;;;;;21.70;9.80;;;-0.90;99.90;;;;;;5100460;28;20220;-57
2023/01/21 02:54:58;;;;;;;21.73;10.10;;;-0.70;99.90;;;;;;5087096;28;20045;-59
2023/01/21 02:57:36;;;;;;;22.65;10.95;;;-0.70;99.90;;;;;;5077768;28;20124;-58
2023/01/21 03:00:28;;;;;;;21.98;9.07;;;-0.60;99.90;;;;;;5080589;28;20041;-58
2023/01/21 03:02:59;;;;;;;24.52;9.43;;;-0.70;99.90;;;;;;5078801;28;20041;-58
2023/01/21 03:05:37;;;;;;;23.63;10.30;;;-0.70;99.90;;;;;;5078989;28;20045;-59
2023/01/21 03:08:29;;;;;;;20.13;8.85;;;-0.80;99.90;;;;;;5080378;28;20106;-57
2023/01/21 03:11:08;;;;;;;26.20;10.82;;;-0.70;99.90;;;;;;5064707;28;20107;-58
2023/01/21 03:19:20;;;;;;;20.35;9.88;;;-0.90;99.90;;;;;;5077661;28;20048;-58
2023/01/21 03:21:47;;;;;;;25.50;10.85;;;-0.90;99.90;;;;;;5062362;28;20047;-59
2023/01/21 03:24:14;;;;;;;27.25;10.95;;;-1.00;99.90;;;;;;5078592;28;20044;-58
2023/01/21 03:26:46;;;;;;;26.35;11.40;;;-0.80;99.90;;;;;;5079471;28;20052;-58
2023/01/21 03:29:23;;;;;;;24.35;11.07;;;-0.60;99.90;;;;;;5080463;28;20044;-59
2023/01/21 03:31:58;;;;;;;20.52;8.82;;;-0.80;99.90;;;;;;5080039;28;20053;-58
2023/01/21 03:34:26;;;;;;;23.25;9.82;;;-0.90;99.90;;;;;;5084376;28;20096;-59
2023/01/21 03:37:20;;;;;;;26.63;10.90;;;-0.80;99.90;;;;;;5063728;28;20048;-58
2023/01/21 03:40:14;;;;;;;22.55;9.88;;;-0.90;99.90;;;;;;5082355;28;20048;-57
2023/01/21 03:42:42;;;;;;;23.30;10.52;;;-1.10;99.90;;;;;;5070386;28;20060;-58
2023/01/21 03:45:08;;;;;;;25.08;10.93;;;-1.10;99.90;;;;;;5081347;28;20145;-58
2023/01/21 03:47:36;;;;;;;25.45;10.50;;;-0.80;99.90;;;;;;5083874;28;20049;-58
2023/01/21 03:50:24;;;;;;;21.98;9.05;;;-0.80;99.90;;;;;;5082488;28;20036;-58
2023/01/21 03:52:50;;;;;;;27.35;9.73;;;-0.50;99.90;;;;;;5081485;28;20060;-59
2023/01/21 03:55:16;;;;;;;21.63;9.30;;;-0.80;99.90;;;;;;5083953;28;20045;-58
2023/01/21 03:57:42;;;;;;;24.80;10.05;;;-0.60;99.90;;;;;;5063267;28;20123;-58
2023/01/21 04:00:08;;;;;;;22.20;10.13;;;-0.60;99.90;;;;;;5083217;28;20048;-59
2023/01/21 04:02:34;;;;;;;23.40;9.93;;;-0.30;99.90;;;;;;5081650;28;20081;-59
2023/01/21 04:04:59;;;;;;;22.20;10.77;;;-0.40;99.90;;;;;;5094999;28;20697;-59
2023/01/21 04:07:25;;;;;;;28.15;12.00;;;-0.30;99.90;;;;;;5103319;28;20071;-58
2023/01/21 04:09:51;;;;;;;25.38;11.40;;;-0.30;99.90;;;;;;5102032;28;20035;-58
2023/01/21 04:12:17;;;;;;;22.48;10.05;;;-0.50;99.90;;;;;;5103773;28;20040;-58
2023/01/21 04:14:42;;;;;;;25.63;12.40;;;-0.60;99.90;;;;;;5082747;28;20035;-58
2023/01/21 04:17:08;;;;;;;30.23;12.48;;;-0.10;99.90;;;;;;5103901;28;20048;-58
2023/01/21 04:19:34;;;;;;;26.80;11.70;;;-0.50;99.90;;;;;;5082739;28;20125;-58
2023/01/21 04:22:00;;;;;;;27.33;11.98;;;-0.10;99.90;;;;;;5103522;28;20065;-58
2023/01/21 04:24:25;;;;;;;23.25;10.40;;;-0.30;99.90;;;;;;5102630;28;20039;-58
2023/01/21 04:26:51;;;;;;;28.30;12.25;;;-0.20;99.90;;;;;;5101976;28;20111;-58
2023/01/21 04:29:17;;;;;;;28.33;13.57;;;-0.50;99.90;;;;;;5103599;28;20047;-57
2023/01/21 04:31:43;;;;;;;28.35;12.52;;;-0.10;99.90;;;;;;5100655;28;20040;-58
2023/01/21 04:34:09;;;;;;;25.88;11.80;;;-0.30;99.90;;;;;;5103560;28;20100;-58
2023/01/21 04:36:35;;;;;;;25.63;11.55;;;-0.20;99.90;;;;;;5100212;28;20095;-57
2023/01/21 04:39:01;;;;;;;25.77;11.30;;;-0.50;99.90;;;;;;5102199;28;20040;-59
2023/01/21 04:41:26;;;;;;;23.48;11.80;;;-0.60;99.90;;;;;;5100501;28;20054;-58
2023/01/21 04:43:52;;;;;;;24.38;10.93;;;-0.30;99.90;;;;;;5100557;28;20496;-58
2023/01/21 04:46:18;;;;;;;30.73;12.15;;;-0.20;99.90;;;;;;5101968;28;20091;-58
2023/01/21 04:48:43;;;;;;;23.75;10.40;;;-0.60;99.90;;;;;;5099362;28;20044;-57
2023/01/21 04:51:09;;;;;;;25.05;11.27;;;-0.50;99.90;;;;;;5102041;28;20044;-57
2023/01/21 04:53:35;;;;;;;27.83;12.02;;;-0.60;99.90;;;;;;5099062;28;20032;-58
2023/01/21 04:56:00;;;;;;;25.75;12.80;;;-0.30;99.90;;;;;;5101958;28;20035;-58
2023/01/21 04:58:26;;;;;;;29.77;12.15;;;-0.30;99.90;;;;;;5081653;28;20048;-57
2023/01/21 05:00:54;;;;;;;27.73;12.10;;;-0.60;99.90;;;;;;5101006;28;20340;-58
2023/01/21 05:03:19;;;;;;;26.55;11.32;;;-0.10;99.90;;;;;;5101780;28;20032;-58
2023/01/21 05:05:45;;;;;;;26.95;12.25;;;-0.20;99.90;;;;;;5099117;28;20092;-58
2023/01/21 05:08:11;;;;;;;27.33;12.00;;;-0.50;99.90;;;;;;5101784;28;20036;-58
2023/01/21 05:10:36;;;;;;;24.90;11.88;;;-0.50;99.90;;;;;;5098816;28;20032;-58
2023/01/21 05:13:02;;;;;;;28.67;12.68;;;-0.20;99.90;;;;;;5101164;28;20044;-58
2023/01/21 05:15:28;;;;;;;26.70;11.25;;;-0.50;99.90;;;;;;5099516;28;20521;-58
2023/01/21 05:17:54;;;;;;;26.00;11.75;;;-0.50;99.90;;;;;;5101021;28;20522;-58
2023/01/21 05:20:19;;;;;;;27.35;11.98;;;-0.50;99.90;;;;;;5100915;28;20045;-58
2023/01/21 05:22:46;;;;;;;24.48;11.07;;;-0.20;99.90;;;;;;5099174;28;20032;-58
2023/01/21 05:25:12;;;;;;;24.05;10.00;;;-0.20;99.90;;;;;;5101722;28;20446;-59
2023/01/21 05:27:38;;;;;;;24.05;11.05;;;-0.10;99.90;;;;;;5098493;28;20048;-58
2023/01/21 05:30:05;;;;;;;23.90;12.43;;;-0.20;99.90;;;;;;5101254;28;20060;-59
2023/01/21 05:32:30;;;;;;;28.85;12.18;;;-0.30;99.90;;;;;;5098724;28;20193;-58
2023/01/21 05:34:56;;;;;;;26.40;11.52;;;-0.50;99.90;;;;;;5101033;28;20476;-58
2023/01/21 05:37:22;;;;;;;24.98;10.90;;;-0.20;99.90;;;;;;5061983;28;1082685;-58
2023/01/21 05:39:47;;;;;;;24.13;11.27;;;-0.30;99.90;;;;;;5100189;28;20590;-58
2023/01/21 05:42:13;;;;;;;26.75;11.68;;;-0.60;99.90;;;;;;5101824;28;20058;-58
2023/01/21 05:44:39;;;;;;;26.85;11.57;;;-0.70;99.90;;;;;;5099176;28;20067;-58
2023/01/21 05:47:06;;;;;;;24.52;11.63;;;-0.30;99.90;;;;;;5101897;28;20098;-58
2023/01/21 05:49:32;;;;;;;22.27;10.98;;;-0.50;99.90;;;;;;5099430;28;20040;-59
2023/01/21 05:51:57;;;;;;;23.33;10.50;;;-0.40;99.90;;;;;;5101799;28;20044;-59
2023/01/21 05:54:23;;;;;;;24.50;10.38;;;-0.60;99.90;;;;;;5089267;28;20041;-59
2023/01/21 05:56:49;;;;;;;27.00;12.30;;;-0.40;99.90;;;;;;5079801;28;20045;-58
2023/01/21 05:59:14;;;;;;;24.75;11.20;;;-0.90;99.90;;;;;;5063489;28;20036;-59
2023/01/21 06:01:40;;;;;;;25.75;11.27;;;-0.90;99.90;;;;;;5078485;28;20066;-59
2023/01/21 06:04:05;;;;;;;28.60;11.65;;;-0.80;99.90;;;;;;5081447;28;20068;-58
2023/01/21 06:06:31;;;;;;;22.75;11.07;;;-1.00;99.90;;;;;;5079005;28;20036;-58
2023/01/21 06:08:57;;;;;;;25.60;10.50;;;-0.70;99.90;;;;;;5081100;28;20044;-58
2023/01/21 06:11:23;;;;;;;23.77;10.63;;;-0.90;99.90;;;;;;5079509;28;20052;-58
2023/01/21 06:13:49;;;;;;;22.45;10.15;;;-0.70;99.90;;;;;;5079813;28;20083;-59
2023/01/21 06:16:14;;;;;;;28.35;12.07;;;-0.60;99.90;;;;;;5081312;28;20100;-58
2023/01/21 06:18:40;;;;;;;29.73;13.13;;;-1.00;99.90;;;;;;5078194;28;20417;-58
2023/01/21 06:21:06;;;;;;;27.73;12.52;;;-1.00;99.90;;;;;;5081204;28;20469;-58
2023/01/21 06:23:32;;;;;;;26.58;11.95;;;-0.70;99.90;;;;;;5078310;28;20052;-58
2023/01/21 06:26:01;;;;;;;23.38;11.43;;;-0.90;99.90;;;;;;5080690;28;20623;-58
2023/01/21 06:28:27;;;;;;;25.00;10.52;;;-0.80;99.90;;;;;;5087305;28;20044;-58
2023/01/21 06:30:53;;;;;;;27.48;12.02;;;-0.80;99.90;;;;;;5070644;28;20055;-59
2023/01/21 06:33:19;;;;;;;31.00;12.32;;;-0.90;99.90;;;;;;5078388;28;20032;-58
2023/01/21 06:35:44;;;;;;;25.10;10.52;;;-1.10;99.90;;;;;;5074471;28;20412;-58
2023/01/21 06:38:10;;;;;;;26.55;10.27;;;-1.10;99.90;;;;;;5077073;28;20335;-59
2023/01/21 06:40:36;;;;;;;25.70;10.65;;;-1.30;99.90;;;;;;5074099;28;20448;-58
2023/01/21 06:43:01;;;;;;;23.65;10.88;;;-1.40;99.90;;;;;;5076839;28;20086;-58
2023/01/21 06:45:27;;;;;;;27.42;11.70;;;-1.40;99.90;;;;;;5074416;28;20592;-58
2023/01/21 06:47:53;;;;;;;26.75;11.85;;;-1.10;99.90;;;;;;5076347;28;20573;-58
2023/01/21 06:50:18;;;;;;;29.17;11.55;;;-1.50;99.90;;;;;;5076475;28;20059;-58
2023/01/21 06:52:46;;;;;;;25.83;11.02;;;-1.20;99.90;;;;;;5074142;28;20105;-58
2023/01/21 06:55:12;;;;;;;30.10;13.40;;;-1.40;99.90;;;;;;5093263;28;20052;-59
2023/01/21 06:57:38;;;;;;;28.52;13.13;;;-1.20;99.90;;;;;;5094138;28;20090;-57
2023/01/21 07:00:07;;;;;;;25.63;11.93;;;-1.10;99.90;;;;;;5097029;28;20067;-58
2023/01/21 07:02:33;;;;;;;25.23;12.18;;;-1.50;99.90;;;;;;5076518;28;20044;-58
2023/01/21 07:04:59;;;;;;;25.45;11.10;;;-1.40;99.90;;;;;;5096480;28;20055;-58
2023/01/21 07:07:25;;;;;;;23.77;10.25;;;-1.30;99.90;;;;;;5077626;28;20051;-58
2023/01/21 07:09:51;;;;;;;32.90;13.40;;;-1.50;99.90;;;;;;5094208;28;20067;-58
2023/01/21 07:12:16;;;;;;;27.27;10.48;;;-1.40;99.90;;;;;;5096644;28;20067;-58
2023/01/21 07:14:42;;;;;;;27.80;12.10;;;-1.50;99.90;;;;;;5094098;28;20051;-58
2023/01/21 07:17:08;;;;;;;28.20;12.57;;;-1.40;99.90;;;;;;5096877;28;20054;-58
2023/01/21 07:19:33;;;;;;;27.80;11.75;;;-1.50;99.90;;;;;;5093759;28;20036;-59
2023/01/21 07:21:59;;;;;;;31.52;12.18;;;-1.20;99.90;;;;;;5096706;28;20051;-58
2023/01/21 07:24:25;;;;;;;29.80;11.35;;;-1.60;99.90;;;;;;5095650;28;20056;-58
2023/01/21 07:26:51;;;;;;;25.88;11.35;;;-1.50;99.90;;;;;;5076496;28;20165;-58
2023/01/21 07:29:16;;;;;;;26.77;11.90;;;-1.60;99.90;;;;;;5096805;28;20047;-58
2023/01/21 07:31:42;;;;;;;24.33;11.32;;;-1.40;99.90;;;;;;5093189;28;20044;-58
2023/01/21 07:34:07;;;;;;;30.23;11.88;;;-1.40;99.90;;;;;;5078208;28;20087;-57
2023/01/21 07:36:33;;;;;;;25.58;12.02;;;-1.40;99.90;;;;;;5093790;28;20655;-58
2023/01/21 07:38:59;;;;;;;25.20;10.95;;;-1.60;99.90;;;;;;5096456;28;20052;-58
2023/01/21 07:41:25;;;;;;;30.88;12.05;;;-1.50;99.90;;;;;;5095212;28;20060;-56
2023/01/21 07:43:51;;;;;;;29.60;12.57;;;-1.40;99.90;;;;;;5094419;28;20048;-58
2023/01/21 07:46:20;;;;;;;26.65;11.68;;;-1.50;99.90;;;;;;5096460;28;20458;-58
2023/01/21 07:48:47;;;;;;;32.78;14.13;;;-1.40;99.90;;;;;;5093638;28;20044;-58
2023/01/21 07:51:13;;;;;;;30.10;13.82;;;-1.40;99.90;;;;;;5086619;28;20044;-57
2023/01/21 07:53:39;;;;;;;28.88;13.02;;;-1.20;99.90;;;;;;5083575;28;20111;-58
2023/01/21 07:56:06;;;;;;;32.17;14.50;;;-1.30;99.90;;;;;;5082640;28;20549;-58
2023/01/21 07:58:32;;;;;;;33.05;13.88;;;-1.30;99.90;;;;;;5084373;28;20067;-58
2023/01/21 08:00:58;;;;;;;30.65;14.48;;;-1.40;99.90;;;;;;5082704;28;20044;-58
2023/01/21 08:03:25;;;;;;;27.63;13.30;;;-1.30;99.90;;;;;;5085106;28;20044;-57
2023/01/21 08:05:51;;;;;;;33.83;15.32;;;-1.10;99.90;;;;;;5082060;28;20871;-55
2023/01/21 08:08:17;;;;;;;32.88;13.68;;;-1.20;99.90;;;;;;5089347;28;20044;-56
2023/01/21 08:10:43;;;;;;;36.15;14.48;;;-1.30;99.90;;;;;;5093166;28;20564;-57
2023/01/21 08:13:09;;;;;;;29.08;13.13;;;-1.40;99.90;;;;;;5077216;28;20153;-58
2023/01/21 08:15:35;;;;;;;27.88;14.18;;;-1.40;99.90;;;;;;5076353;28;20318;-57
2023/01/21 08:18:00;;;;;;;34.55;15.32;;;-1.40;99.90;;;;;;5098047;28;20099;-57
2023/01/21 08:20:26;;;;;;;28.33;13.60;;;-1.30;99.90;;;;;;5099371;28;20193;-57
2023/01/21 08:22:52;;;;;;;33.28;14.48;;;-1.10;99.90;;;;;;5096854;28;20123;-58
2023/01/21 08:25:18;;;;;;;35.97;15.63;;;-0.90;99.90;;;;;;5099796;28;20056;-58
2023/01/21 08:27:44;;;;;;;32.67;17.55;;;-0.80;99.90;;;;;;5096961;28;20032;-58
2023/01/21 08:30:10;;;;;;;30.60;14.25;;;-0.70;99.90;;;;;;5099677;28;20111;-57
2023/01/21 08:32:35;;;;;;;31.65;15.07;;;-1.00;99.90;;;;;;5097105;28;20043;-58
2023/01/21 08:35:01;;;;;;;30.67;13.25;;;-1.00;99.90;;;;;;5098536;28;20036;-57
2023/01/21 08:37:27;;;;;;;29.80;13.05;;;-0.70;99.90;;;;;;5098956;28;20079;-56
2023/01/21 08:39:52;;;;;;;28.52;13.23;;;-1.00;99.90;;;;;;5096988;28;20048;-58
2023/01/21 08:42:18;;;;;;;29.88;12.43;;;-0.80;99.90;;;;;;5099555;28;20063;-58
2023/01/21 08:44:44;;;;;;;28.50;13.20;;;-0.90;99.90;;;;;;5096181;28;20070;-57
2023/01/21 08:47:10;;;;;;;28.02;12.75;;;-0.80;99.90;;;;;;5099337;28;20048;-58
2023/01/21 08:49:36;;;;;;;32.25;14.07;;;-0.60;99.90;;;;;;5078888;28;20108;-57
2023/01/21 08:52:02;;;;;;;30.65;14.18;;;-0.80;99.90;;;;;;5098669;28;20127;-57
2023/01/21 08:54:27;;;;;;;28.92;13.70;;;-0.70;99.90;;;;;;5069392;28;20059;-55
2023/01/21 08:56:53;;;;;;;28.05;12.32;;;-0.70;99.90;;;;;;5076251;28;20052;-58
2023/01/21 08:59:27;;;;;;;30.25;13.60;;;-0.50;99.90;;;;;;5061051;28;20040;-58
2023/01/21 09:01:53;;;;;;;30.67;14.43;;;-0.40;99.90;;;;;;5075985;28;20056;-58
2023/01/21 09:04:19;;;;;;;30.13;12.77;;;-0.10;99.90;;;;;;5061595;28;20040;-56
2023/01/21 09:06:44;;;;;;;28.75;14.13;;;-0.30;99.90;;;;;;5083398;28;20046;-57
2023/01/21 09:09:10;;;;;;;28.85;14.63;;;-0.30;99.90;;;;;;5051379;28;20689;-58
2023/01/21 09:11:36;;;;;;;28.30;14.13;;;0.10;99.90;;;;;;5077884;28;20496;-57
2023/01/21 09:14:03;;;;;;;31.85;14.15;;;0.00;99.90;;;;;;5076229;28;20048;-58
2023/01/21 09:16:32;;;;;;;26.85;12.13;;;0.10;99.90;;;;;;5078695;28;20495;-57
2023/01/21 09:19:01;;;;;;;31.10;12.85;;;0.10;99.90;;;;;;5083704;28;20627;-57
2023/01/21 09:21:28;;;;;;;31.52;14.20;;;-0.20;99.90;;;;;;5086562;28;20055;-57
2023/01/21 09:23:54;;;;;;;30.48;13.38;;;0.00;99.90;;;;;;5086587;28;20105;-57
2023/01/21 09:26:22;;;;;;;29.98;14.82;;;0.30;99.90;;;;;;5087098;28;20058;-57
2023/01/21 09:28:53;;;;;;;29.55;13.82;;;0.00;99.90;;;;;;5085960;28;20036;-58
2023/01/21 09:31:20;;;;;;;27.38;12.68;;;0.40;99.90;;;;;;5084382;28;20040;-58
2023/01/21 09:33:48;;;;;;;27.95;14.55;;;0.40;99.90;;;;;;5087584;28;20044;-57
2023/01/21 09:36:19;;;;;;;31.27;14.85;;;0.40;99.90;;;;;;5092255;28;20531;-57
2023/01/21 09:38:46;;;;;;;26.77;12.32;;;0.20;99.90;;;;;;5097963;28;20040;-58
2023/01/21 09:41:23;;;;;;;25.90;12.27;;;0.30;99.90;;;;;;5096583;28;20040;-57
2023/01/21 09:43:58;;;;;;;31.00;13.02;;;0.70;99.90;;;;;;5089617;28;20036;-60
2023/01/21 09:46:33;;;;;;;32.50;12.20;;;0.60;99.90;;;;;;5089226;28;20043;-58
2023/01/21 09:49:01;;;;;;;24.65;12.90;;;0.80;99.90;;;;;;5083948;28;20045;-58
2023/01/21 09:51:41;;;;;;;23.92;11.85;;;0.60;99.90;;;;;;5087201;28;20048;-58
2023/01/21 09:54:31;;;;;;;20.50;10.52;;;0.90;99.90;;;;;;5087794;28;20288;-58
2023/01/21 09:57:16;;;;;;;26.90;11.70;;;0.70;99.90;;;;;;5095383;28;20039;-57
2023/01/21 09:59:42;;;;;;;26.23;11.02;;;0.70;99.90;;;;;;5098278;28;20642;-58
2023/01/21 10:02:23;;;;;;;24.23;10.88;;;0.90;99.90;;;;;;5095154;28;20044;-57
2023/01/21 10:05:15;;;;;;;27.83;12.30;;;0.70;99.90;;;;;;5097475;28;20119;-55
2023/01/21 10:07:48;;;;;;;25.23;13.23;;;1.00;99.90;;;;;;5048076;28;20462;-58
2023/01/21 10:10:40;;;;;;;23.42;10.00;;;0.60;99.90;;;;;;5094861;28;20044;-58
2023/01/21 10:13:28;;;;;;;22.80;11.33;;;1.00;99.90;;;;;;5097351;28;20051;-58
2023/01/21 10:16:08;;;;;;;23.30;11.07;;;0.90;99.90;;;;;;5076908;28;20279;-58
2023/01/21 10:18:37;;;;;;;21.02;10.18;;;1.30;99.90;;;;;;5073883;28;20070;-58
2023/01/21 10:21:19;;;;;;;24.70;10.23;;;1.20;99.90;;;;;;5092969;28;20131;-57
2023/01/21 10:23:50;;;;;;;25.30;11.32;;;0.80;99.90;;;;;;5094643;28;20084;-57
2023/01/21 10:26:16;;;;;;;22.80;10.93;;;1.30;99.90;;;;;;5097312;28;20048;-57
2023/01/21 10:28:54;;;;;;;21.95;10.85;;;1.00;99.90;;;;;;5097154;28;20087;-56
2023/01/21 10:31:27;;;;;;;21.92;9.90;;;1.00;99.90;;;;;;5094213;28;20223;-57
2023/01/21 10:33:53;;;;;;;;;;;1.40;99.90;;;;;;5097964;28;20079;-57
2023/01/21 10:36:37;;;;;;;;;;;1.60;99.90;;;;;;5095145;28;19920;-57
2023/01/21 10:39:02;;;;;;;;;;;1.60;99.90;;;;;;5097121;28;19926;-56
2023/01/21 10:41:28;;;;;;;;;;;1.70;99.90;;;;;;5096875;28;19955;-55
2023/01/21 10:43:59;;;;;;;;;;;1.40;99.90;;;;;;5077097;28;19919;-57
2023/01/21 10:46:32;;;;;;;;;;;1.20;99.90;;;;;;5097653;28;19959;-56
2023/01/21 10:49:13;;;;;;;;;;;1.20;99.90;;;;;;5094998;28;19920;-56
2023/01/21 10:51:46;;;;;;;;;;;1.40;99.90;;;;;;5097234;28;19924;-57
2023/01/21 10:54:28;;;;;;;;;;;1.20;99.90;;;;;;5095437;28;20115;-57
2023/01/21 10:57:15;;;;;;;;;;;1.40;99.90;;;;;;5086462;28;19977;-57
2023/01/21 10:59:41;;;;;;;;;;;1.90;99.90;;;;;;5087795;28;19924;-57
2023/01/21 11:02:06;;;;;;;;;;;1.60;99.90;;;;;;5064988;28;19921;-57
2023/01/21 11:04:32;;;;;;;;;;;1.90;99.90;;;;;;5087044;28;19963;-58
2023/01/21 11:06:59;;;;;;;;;;;1.70;99.90;;;;;;5085995;28;19932;-56
2023/01/21 11:09:27;;;;;;;;;;;2.10;99.90;;;;;;5083927;28;19972;-57
2023/01/21 11:11:52;;;;;;;;;;;2.20;99.90;;;;;;5086283;28;19924;-56
2023/01/21 11:14:18;;;;;;;;;;;2.20;99.90;;;;;;5084772;28;19938;-57
2023/01/21 11:16:48;;;;;;;;;;;2.10;99.90;;;;;;5085632;28;19990;-56
2023/01/21 11:19:15;;;;;;;;;;;2.00;99.90;;;;;;5065496;28;19931;-56
2023/01/21 11:21:55;;;;;;;;;;;2.30;99.90;;;;;;5087689;28;20349;-57
2023/01/21 11:24:22;;;;;;;;;;;2.50;99.90;;;;;;5086580;28;19947;-57
2023/01/21 11:26:58;;;;;;;;;;;2.40;99.90;;;;;;5087138;28;20319;-56
2023/01/21 11:29:24;;;;;;;;;;;2.60;99.90;;;;;;5100677;28;19942;-57
2023/01/21 11:32:01;;;;;;;;;;;2.70;99.90;;;;;;5098009;28;20402;-57
2023/01/21 11:34:26;;;;;;;;;;;2.40;99.90;;;;;;5100690;28;19943;-56
2023/01/21 11:36:55;;;;;;;;;;;2.70;99.90;;;;;;5099072;28;19919;-57
2023/01/21 11:39:28;;;;;;;;;;;2.40;99.90;;;;;;5099472;28;19935;-57
2023/01/21 11:41:57;;;;;;;;;;;2.80;99.90;;;;;;5100863;28;19951;-58
2023/01/21 11:44:23;;;;;;;;;;;2.60;99.90;;;;;;5097441;28;19920;-57
2023/01/21 11:46:49;;;;;;;;;;;2.80;99.90;;;;;;5100494;28;19920;-57
2023/01/21 11:49:15;;;;;;;;;;;2.90;99.90;;;;;;5098092;28;20318;-57
2023/01/21 11:51:41;;;;;;;;;;;2.90;99.90;;;;;;5101579;28;19928;-58
2023/01/21 11:54:10;;;;;;;;;;;2.80;99.90;;;;;;5094484;28;19920;-57
2023/01/21 11:56:35;;;;;;;;;;;2.80;99.90;;;;;;5082947;28;19925;-57
2023/01/21 11:59:09;;;;;;;;;;;2.90;99.90;;;;;;5083823;28;19931;-57
2023/01/21 12:01:34;;;;;;;;;;;2.90;99.90;;;;;;5081132;28;20008;-57
2023/01/21 12:04:00;;;;;;;;;;;2.90;99.90;;;;;;5101239;28;20283;-57
2023/01/21 12:06:29;;;;;;;;;;;3.00;99.90;;;;;;5101374;28;20587;-57
2023/01/21 12:09:06;;;;;;;;;;;3.00;99.90;;;;;;5103004;28;20287;-57
2023/01/21 12:11:32;;;;;;;;;;;3.00;99.90;;;;;;5103151;28;20283;-56
2023/01/21 12:14:00;;;;;;;;;;;3.10;99.90;;;;;;5100616;28;19919;-57
2023/01/21 12:16:31;;;;;;;;;;;3.10;99.90;;;;;;5104673;28;19943;-57
2023/01/21 12:19:17;;;;;;;;;;;3.10;99.90;;;;;;5101504;28;19928;-56
2023/01/21 12:22:09;;;;;;;;;;;3.10;99.90;;;;;;5085948;28;19931;-57
2023/01/21 12:24:53;;;;;;;;;;;3.30;99.90;;;;;;5064569;28;19927;-56
2023/01/21 12:27:27;;;;;;;;;;;3.10;99.90;;;;;;5101104;28;19920;-56
2023/01/21 12:29:56;;;;;;;;;;;3.10;99.90;;;;;;5103883;28;19927;-57
2023/01/21 12:32:37;;;;;;;;;;;3.20;99.90;;;;;;5083373;28;19923;-56
2023/01/21 12:35:21;;;;;;;;;;;3.10;99.90;;;;;;5102493;28;19988;-56
2023/01/21 12:37:50;;;;;;;;;;;3.30;99.90;;;;;;5103665;28;19923;-58
2023/01/21 12:40:21;;;;;;;;;;;3.40;99.90;;;;;;5101033;28;20304;-58
2023/01/21 12:42:50;;;;;;;;;;;3.50;99.90;;;;;;5103532;28;19987;-58
2023/01/21 12:45:26;;;;;;;;;;;3.50;99.90;;;;;;5101423;28;19927;-58
2023/01/21 12:48:00;;;;;;;;;;;3.60;99.90;;;;;;5102679;28;19920;-58
2023/01/21 12:50:26;;;;;;;;;;;3.50;99.90;;;;;;5085277;28;20391;-55
2023/01/21 12:52:54;;;;;;;;;;;3.50;99.90;;;;;;5100535;28;19920;-57
2023/01/21 12:55:29;;;;;;;;;;;3.50;99.90;;;;;;5066928;28;19924;-57
2023/01/21 12:57:56;;;;;;;;;;;3.50;99.90;;;;;;5080516;28;19947;-58
2023/01/21 13:00:24;;;;;;;;;;;3.40;99.90;;;;;;5083119;28;20358;-58
2023/01/21 13:02:55;;;;;;;;;;;3.50;99.90;;;;;;5081832;28;19921;-56
2023/01/21 13:05:20;;;;;;;;;;;3.40;99.90;;;;;;5080823;28;20133;-57
2023/01/21 13:08:01;;;;;;;;;;;3.30;99.90;;;;;;5082786;28;19969;-57